createdAt,value
2023-04-06T00:01:57.419Z,0.20
2023-04-06T00:04:24.872Z,0.20
2023-04-06T00:06:52.341Z,0.20
2023-04-06T00:09:19.996Z,0.20
2023-04-06T00:11:47.620Z,0.20
2023-04-06T00:14:15.250Z,0.30
2023-04-06T00:16:42.969Z,0.30
2023-04-06T00:19:10.576Z,0.40
2023-04-06T00:21:38.207Z,0.40
2023-04-06T00:24:05.983Z,0.40
2023-04-06T00:26:33.590Z,0.50
2023-04-06T00:29:01.334Z,0.50
2023-04-06T00:31:30.270Z,0.50
2023-04-06T00:33:59.426Z,0.50
2023-04-06T00:36:27.991Z,0.50
2023-04-06T00:38:56.262Z,0.50
2023-04-06T00:41:23.794Z,0.50
2023-04-06T00:43:51.288Z,0.50
2023-04-06T00:46:18.862Z,0.40
2023-04-06T00:48:46.564Z,0.40
2023-04-06T00:51:14.061Z,0.40
2023-04-06T00:53:41.737Z,0.40
2023-04-06T00:56:11.600Z,0.40
2023-04-06T00:58:50.067Z,0.30
2023-04-06T01:01:17.640Z,0.30
2023-04-06T01:03:49.086Z,0.30
2023-04-06T01:06:18.480Z,0.30
2023-04-06T01:08:53.755Z,0.20
2023-04-06T01:11:23.599Z,0.20
2023-04-06T01:13:52.761Z,0.20
2023-04-06T01:16:38.829Z,0.10
2023-04-06T01:19:14.591Z,0.00
2023-04-06T01:21:46.972Z,0.00
2023-04-06T01:24:22.823Z,0.00
2023-04-06T01:27:06.004Z,0.00
2023-04-06T01:30:00.592Z,0.00
2023-04-06T01:32:54.436Z,-0.10
2023-04-06T01:35:34.606Z,-0.10
2023-04-06T01:38:13.546Z,-0.20
2023-04-06T01:40:41.308Z,-0.20
2023-04-06T01:43:09.040Z,-0.20
2023-04-06T01:45:46.309Z,-0.30
2023-04-06T01:48:19.933Z,-0.30
2023-04-06T01:50:47.558Z,-0.30
2023-04-06T01:53:21.123Z,-0.30
2023-04-06T01:55:48.967Z,-0.30
2023-04-06T01:58:24.671Z,-0.40
2023-04-06T02:38:39.201Z,-0.70
2023-04-06T02:44:06.797Z,-0.80
2023-04-06T02:46:49.506Z,-0.80
2023-04-06T02:49:19.400Z,-0.80
2023-04-06T02:52:04.581Z,-0.80
2023-04-06T02:54:37.720Z,-0.80
2023-04-06T03:00:13.972Z,-0.80
2023-04-06T03:05:47.162Z,-0.80
2023-04-06T06:40:35.249Z,-0.50
2023-04-06T06:43:06.044Z,-0.30
2023-04-06T06:45:38.521Z,0.00
2023-04-06T06:48:06.343Z,0.30
2023-04-06T06:50:33.966Z,0.60
2023-04-06T06:53:01.572Z,1.00
2023-04-06T06:55:29.346Z,1.30
2023-04-06T06:57:57.487Z,1.60
2023-04-06T07:00:25.760Z,2.00
2023-04-06T07:24:03.110Z,4.10
2023-04-06T07:26:36.762Z,4.30
2023-04-06T07:29:06.252Z,4.40
2023-04-06T07:31:35.402Z,4.60
2023-04-06T08:54:02.408Z,10.40
2023-04-06T08:56:42.509Z,10.60
2023-04-06T08:59:14.154Z,10.70
2023-04-06T09:01:49.615Z,10.90
2023-04-06T09:04:19.486Z,11.10
2023-04-06T09:28:49.490Z,11.70
2023-04-06T09:31:18.868Z,11.70
2023-04-06T09:41:01.343Z,11.90
2023-04-06T09:43:32.996Z,12.10
2023-04-06T09:46:04.951Z,12.20
2023-04-06T10:45:13.761Z,14.80
